createdAt,value
2022-09-11T00:02:56.224Z,8.52
2022-09-11T00:07:57.806Z,8.85
2022-09-11T00:12:59.369Z,8.85
2022-09-11T00:18:00.920Z,8.57
2022-09-11T00:23:05.079Z,9.90
2022-09-11T00:28:07.511Z,11.45
2022-09-11T00:33:10.227Z,11.05
2022-09-11T00:38:16.654Z,12.35
2022-09-11T00:48:24.624Z,15.00
2022-09-11T00:53:30.258Z,15.00
2022-09-11T00:58:35.968Z,16.58
2022-09-11T01:03:37.669Z,18.85
2022-09-11T01:08:40.139Z,19.85
2022-09-11T01:13:58.921Z,19.48
2022-09-11T01:19:37.888Z,19.60
2022-09-11T01:25:05.862Z,21.48
2022-09-11T01:30:18.081Z,21.88
2022-09-11T01:35:41.702Z,22.70
2022-09-11T01:40:59.194Z,23.30
2022-09-11T01:46:03.934Z,24.80
2022-09-11T01:51:09.030Z,23.98
2022-09-11T01:56:16.691Z,25.48
2022-09-11T02:01:22.953Z,26.27
2022-09-11T02:06:33.033Z,25.70
2022-09-11T02:11:38.984Z,25.77
2022-09-11T02:16:52.801Z,26.65
2022-09-11T02:21:55.026Z,25.50
2022-09-11T02:27:20.593Z,26.00
2022-09-11T02:32:23.747Z,27.02
2022-09-11T02:37:41.622Z,27.13
2022-09-11T02:43:13.550Z,26.65
2022-09-11T02:48:30.792Z,27.33
2022-09-11T02:53:47.885Z,27.37
2022-09-11T02:58:56.540Z,27.58
2022-09-11T03:04:00.145Z,28.58
2022-09-11T03:09:01.788Z,27.70
2022-09-11T03:14:03.472Z,29.23
2022-09-11T03:19:07.173Z,27.40
2022-09-11T03:24:09.617Z,27.30
2022-09-11T03:29:12.476Z,27.05
2022-09-11T03:34:17.666Z,26.90
2022-09-11T03:39:20.061Z,27.90
2022-09-11T03:44:21.997Z,28.25
2022-09-11T03:49:23.772Z,28.92
2022-09-11T03:54:25.461Z,27.00
2022-09-11T03:59:28.022Z,26.95
2022-09-11T04:04:29.881Z,28.23
2022-09-11T04:09:31.796Z,26.15
2022-09-11T04:14:33.678Z,25.10
2022-09-11T04:19:37.638Z,26.20
2022-09-11T04:24:40.001Z,27.20
2022-09-11T04:29:42.586Z,27.08
2022-09-11T04:34:44.441Z,27.75
2022-09-11T04:39:48.916Z,30.33
2022-09-11T04:44:50.851Z,31.60
2022-09-11T04:49:52.760Z,28.67
2022-09-11T04:54:54.462Z,26.60
2022-09-11T04:59:56.082Z,26.40
2022-09-11T05:04:58.735Z,25.65
2022-09-11T05:10:00.530Z,24.65
2022-09-11T05:15:02.224Z,25.27
2022-09-11T05:20:11.673Z,25.13
2022-09-11T05:25:13.915Z,23.77
2022-09-11T05:30:15.706Z,25.77
2022-09-11T05:35:18.095Z,24.55
2022-09-11T05:40:20.611Z,25.10
2022-09-11T05:45:22.256Z,25.98
2022-09-11T05:50:24.009Z,26.35
2022-09-11T05:55:25.696Z,26.15
2022-09-11T06:00:27.660Z,27.65
2022-09-11T06:05:32.331Z,25.83
2022-09-11T06:10:37.194Z,25.10
2022-09-11T06:15:47.053Z,24.05
2022-09-11T06:20:58.489Z,22.30
2022-09-11T06:26:06.422Z,23.63
2022-09-11T06:31:16.716Z,21.75
2022-09-11T06:36:23.028Z,22.38
2022-09-11T06:41:27.312Z,22.85
2022-09-11T06:46:36.185Z,22.25
2022-09-11T06:51:39.866Z,22.35
2022-09-11T06:56:42.368Z,22.77
2022-09-11T07:01:44.488Z,21.05
2022-09-11T07:06:47.157Z,22.52
2022-09-11T07:11:49.560Z,23.77
2022-09-11T07:16:55.113Z,23.92
2022-09-11T07:21:56.943Z,24.27
2022-09-11T07:27:01.544Z,24.13
2022-09-11T07:32:07.358Z,24.10
2022-09-11T07:37:09.636Z,23.20
2022-09-11T07:42:12.880Z,23.13
2022-09-11T07:47:16.661Z,23.50
2022-09-11T07:52:22.314Z,21.60
2022-09-11T07:57:29.403Z,22.30
2022-09-11T08:02:31.512Z,21.17
2022-09-11T08:07:33.274Z,21.33
2022-09-11T08:12:34.989Z,21.80
2022-09-11T08:17:37.456Z,21.10
2022-09-11T08:22:39.254Z,20.80
2022-09-11T08:27:41.721Z,20.55
2022-09-11T08:32:43.727Z,21.00
2022-09-11T08:37:45.551Z,21.20
2022-09-11T08:42:47.824Z,20.73
2022-09-11T08:47:57.188Z,19.90
2022-09-11T08:53:02.902Z,19.17
2022-09-11T08:58:40.517Z,19.67
2022-09-11T09:04:11.121Z,19.60
2022-09-11T09:09:35.160Z,19.42
2022-09-11T09:14:38.549Z,21.25
2022-09-11T09:20:06.200Z,18.13
2022-09-11T09:25:15.462Z,18.45
2022-09-11T09:30:27.418Z,19.27
2022-09-11T09:35:39.351Z,19.38
2022-09-11T09:41:04.680Z,18.13
2022-09-11T09:46:36.193Z,19.33
2022-09-11T09:51:39.733Z,19.23
2022-09-11T09:56:43.372Z,17.73
2022-09-11T10:01:47.030Z,18.05
2022-09-11T10:06:52.021Z,17.25
2022-09-11T10:12:03.469Z,18.13
2022-09-11T10:17:05.122Z,20.25
2022-09-11T10:22:26.601Z,20.23
2022-09-11T10:27:32.602Z,20.10
2022-09-11T10:32:37.353Z,23.67
2022-09-11T10:37:39.089Z,19.13
2022-09-11T10:42:41.163Z,20.77
2022-09-11T10:47:43.595Z,18.88
2022-09-11T10:53:22.845Z,18.23
2022-09-11T10:58:31.298Z,16.80
2022-09-11T11:03:33.204Z,16.55
2022-09-11T11:08:59.774Z,16.15
2022-09-11T11:14:31.134Z,16.83
2022-09-11T11:19:56.308Z,15.70
2022-09-11T11:25:27.283Z,15.48
2022-09-11T11:30:44.811Z,15.50
2022-09-11T11:36:19.961Z,13.93
2022-09-11T11:41:39.040Z,12.30
2022-09-11T11:46:48.701Z,13.05
2022-09-11T11:52:03.574Z,12.95
2022-09-11T11:57:14.061Z,11.55
2022-09-11T12:02:30.711Z,11.13
2022-09-11T12:07:34.665Z,10.50
2022-09-11T12:12:55.551Z,9.50
2022-09-11T12:18:15.693Z,9.10
2022-09-11T12:23:35.293Z,8.27
2022-09-11T12:28:37.858Z,6.32
2022-09-11T12:33:44.097Z,5.95
2022-09-11T12:38:50.048Z,7.15
2022-09-11T12:43:51.781Z,6.38
2022-09-11T12:49:20.456Z,6.95
2022-09-11T12:54:29.681Z,5.82
2022-09-11T12:59:37.912Z,5.70
2022-09-11T13:04:43.288Z,6.43
2022-09-11T13:09:49.542Z,6.23
2022-09-11T13:14:56.013Z,6.35
2022-09-11T13:20:24.129Z,5.40
2022-09-11T13:25:27.906Z,5.22
2022-09-11T13:30:29.876Z,5.15
2022-09-11T13:35:32.796Z,4.38
2022-09-11T13:40:47.464Z,4.25
2022-09-11T13:45:49.155Z,3.85
2022-09-11T13:50:51.589Z,3.70
2022-09-11T13:55:53.165Z,4.15
2022-09-11T14:00:55.393Z,4.32
2022-09-11T14:06:04.644Z,4.10
2022-09-11T14:11:11.549Z,3.67
2022-09-11T14:16:13.434Z,6.22
2022-09-11T14:21:24.421Z,7.75
2022-09-11T14:26:32.387Z,7.97
2022-09-11T14:31:44.111Z,8.65
2022-09-11T14:36:50.021Z,8.63
2022-09-11T14:41:53.390Z,8.37
2022-09-11T14:46:56.043Z,8.38
2022-09-11T14:51:59.816Z,7.50
2022-09-11T14:57:01.657Z,7.63
2022-09-11T15:02:03.344Z,7.20
2022-09-11T15:07:06.844Z,6.30
2022-09-11T15:12:11.125Z,5.80
2022-09-11T15:17:17.747Z,5.70
2022-09-11T15:22:19.631Z,6.15
2022-09-11T15:27:24.868Z,5.68
2022-09-11T15:32:26.517Z,5.40
2022-09-11T15:37:28.092Z,5.78
2022-09-11T15:42:30.862Z,5.95
2022-09-11T15:47:32.417Z,5.78
2022-09-11T15:52:35.520Z,5.80
2022-09-11T15:57:38.257Z,5.20
2022-09-11T16:02:40.746Z,6.03
2022-09-11T16:07:42.313Z,5.60
2022-09-11T16:12:46.244Z,5.50
2022-09-11T16:17:48.290Z,5.07
2022-09-11T16:22:50.662Z,6.03
2022-09-11T16:27:52.895Z,5.65
2022-09-11T16:32:54.447Z,5.43
2022-09-11T16:37:56.026Z,5.70
2022-09-11T16:42:58.273Z,4.93
2022-09-11T16:48:00.078Z,4.50
2022-09-11T16:53:01.670Z,4.07
2022-09-11T16:58:03.439Z,4.50
2022-09-11T17:03:05.010Z,4.40
2022-09-11T17:08:06.649Z,4.30
2022-09-11T17:13:08.510Z,4.55
2022-09-11T17:18:10.915Z,4.63
2022-09-11T17:23:12.906Z,4.63
2022-09-11T17:28:14.507Z,4.95
2022-09-11T17:33:16.493Z,4.72
2022-09-11T17:38:18.096Z,4.63
2022-09-11T17:43:19.721Z,5.22
2022-09-11T17:48:21.418Z,5.30
2022-09-11T17:53:22.958Z,4.97
2022-09-11T17:58:24.606Z,4.82
2022-09-11T18:03:29.438Z,4.70
2022-09-11T18:08:33.100Z,4.15
2022-09-11T18:13:35.070Z,4.25
2022-09-11T18:18:39.287Z,4.07
2022-09-11T18:23:42.828Z,4.20
2022-09-11T18:28:44.836Z,4.75
2022-09-11T18:33:52.415Z,4.35
2022-09-11T18:38:56.446Z,4.47
2022-09-11T18:44:00.358Z,4.38
2022-09-11T18:49:01.976Z,3.72
2022-09-11T18:54:04.273Z,4.65
2022-09-11T18:59:05.862Z,4.55
2022-09-11T19:04:10.028Z,5.30
2022-09-11T19:09:12.808Z,6.20
2022-09-11T19:14:14.495Z,6.20
2022-09-11T19:19:16.260Z,5.60
2022-09-11T19:24:19.268Z,5.20
2022-09-11T19:29:22.510Z,5.13
2022-09-11T19:34:24.403Z,5.93
2022-09-11T19:39:26.933Z,5.53
2022-09-11T19:44:28.544Z,6.22
2022-09-11T19:49:30.181Z,6.15
2022-09-11T19:54:34.509Z,5.47
2022-09-11T19:59:36.214Z,6.20
2022-09-11T20:04:37.793Z,5.75
2022-09-11T20:09:40.224Z,6.05
2022-09-11T20:14:42.790Z,6.00
2022-09-11T20:19:44.913Z,5.35
2022-09-11T20:24:46.619Z,5.63
2022-09-11T20:29:48.229Z,5.38
2022-09-11T20:34:49.776Z,5.63
2022-09-11T20:39:51.398Z,5.60
2022-09-11T20:44:53.084Z,5.60
2022-09-11T20:49:54.756Z,5.57
2022-09-11T20:54:56.695Z,6.13
2022-09-11T20:59:58.287Z,5.53
2022-09-11T21:05:00.623Z,5.50
2022-09-11T21:10:02.840Z,5.78
2022-09-11T21:15:06.594Z,5.70
2022-09-11T21:20:08.845Z,5.88
2022-09-11T21:25:10.973Z,6.07
2022-09-11T21:30:12.974Z,6.15
2022-09-11T21:35:14.656Z,6.18
2022-09-11T21:40:16.788Z,6.47
2022-09-11T21:45:18.724Z,6.53
2022-09-11T21:50:20.502Z,5.97
2022-09-11T21:55:22.128Z,6.40
2022-09-11T22:00:24.314Z,6.63
2022-09-11T22:05:26.086Z,6.30
2022-09-11T22:10:27.701Z,6.32
2022-09-11T22:15:29.400Z,6.32
2022-09-11T22:20:31.110Z,6.07
2022-09-11T22:25:36.412Z,6.40
2022-09-11T22:30:41.772Z,7.10
2022-09-11T22:35:47.712Z,6.78
2022-09-11T22:40:54.359Z,6.40
2022-09-11T22:45:56.022Z,6.50
2022-09-11T22:50:57.692Z,6.43
2022-09-11T22:55:59.275Z,7.00
2022-09-11T23:01:03.447Z,6.78
2022-09-11T23:06:23.732Z,6.60
2022-09-11T23:11:25.693Z,7.50
2022-09-11T23:16:29.023Z,6.70
2022-09-11T23:21:33.065Z,6.95
2022-09-11T23:26:34.769Z,7.13
2022-09-11T23:31:36.638Z,7.63
2022-09-11T23:36:38.270Z,7.53
2022-09-11T23:41:39.906Z,7.60
2022-09-11T23:46:42.118Z,7.68
2022-09-11T23:51:43.755Z,7.88
2022-09-11T23:56:45.420Z,7.30
